createdAt,value
2019-03-21T00:00:20.795Z,81.46
2019-03-21T00:01:22.661Z,81.99
2019-03-21T00:02:20.793Z,81.32
2019-03-21T00:03:20.762Z,81.53
2019-03-21T00:04:20.770Z,81.04
2019-03-21T00:05:20.740Z,80.73
2019-03-21T00:06:20.738Z,80.21
2019-03-21T00:07:20.729Z,80.10
2019-03-21T00:08:20.776Z,80.94
2019-03-21T00:09:20.806Z,80.35
2019-03-21T00:11:32.147Z,82.17
2019-03-21T00:12:30.478Z,82.62
2019-03-21T00:13:30.448Z,83.57
2019-03-21T00:14:30.437Z,82.83
2019-03-21T00:15:30.427Z,83.57
2019-03-21T00:16:30.415Z,82.83
2019-03-21T00:17:30.408Z,84.23
2019-03-21T00:18:30.421Z,84.23
2019-03-21T00:19:30.391Z,85.28
2019-03-21T00:20:30.406Z,85.60
2019-03-21T00:21:30.393Z,86.02
2019-03-21T00:22:30.350Z,85.49
2019-03-21T00:23:30.340Z,84.76
2019-03-21T00:24:30.329Z,84.86
2019-03-21T00:25:30.323Z,86.02
2019-03-21T00:26:31.442Z,86.16
2019-03-21T00:27:30.302Z,86.47
2019-03-21T00:28:30.327Z,85.32
2019-03-21T00:29:30.285Z,84.80
2019-03-21T00:30:30.270Z,84.06
2019-03-21T00:31:30.259Z,86.72
2019-03-21T00:32:30.253Z,86.37
2019-03-21T00:33:30.295Z,86.06
2019-03-21T00:34:30.262Z,85.99
2019-03-21T00:35:30.227Z,86.16
2019-03-21T00:36:30.296Z,87.11
2019-03-21T00:37:30.222Z,88.30
2019-03-21T00:38:30.191Z,87.57
2019-03-21T00:39:32.983Z,86.62
2019-03-21T00:40:30.171Z,87.32
2019-03-21T00:41:30.187Z,86.72
2019-03-21T00:42:30.165Z,86.20
2019-03-21T00:43:30.173Z,86.72
2019-03-21T00:44:30.141Z,86.94
2019-03-21T00:45:30.116Z,87.57
2019-03-21T00:46:30.105Z,87.46
2019-03-21T00:47:30.097Z,87.46
2019-03-21T00:48:30.121Z,87.11
2019-03-21T00:49:30.106Z,87.11
2019-03-21T00:50:30.100Z,86.54
2019-03-21T00:51:30.069Z,85.03
2019-03-21T00:52:30.062Z,82.65
2019-03-21T00:53:30.037Z,80.83
2019-03-21T00:54:30.054Z,80.31
2019-03-21T00:55:30.021Z,79.44
2019-03-21T00:56:30.009Z,78.81
2019-03-21T00:57:30.002Z,77.62
2019-03-21T00:58:30.802Z,77.10
2019-03-21T00:59:29.981Z,76.47
2019-03-21T01:00:29.967Z,76.40
2019-03-21T01:01:29.965Z,75.67
2019-03-21T01:02:30.267Z,74.84
2019-03-21T01:03:29.941Z,74.84
2019-03-21T01:04:29.960Z,75.57
2019-03-21T01:05:30.254Z,74.84
2019-03-21T01:06:30.652Z,74.63
2019-03-21T01:07:29.901Z,74.42
2019-03-21T01:08:29.929Z,75.46
2019-03-21T01:09:29.885Z,75.46
2019-03-21T01:10:29.867Z,74.84
2019-03-21T01:11:29.862Z,75.22
2019-03-21T01:12:29.849Z,75.12
2019-03-21T01:13:29.864Z,75.43
2019-03-21T01:14:30.263Z,75.57
2019-03-21T01:15:29.943Z,75.98
2019-03-21T01:16:29.810Z,76.16
2019-03-21T01:17:30.145Z,76.61
2019-03-21T01:18:29.822Z,76.20
2019-03-21T01:19:29.773Z,76.57
2019-03-21T01:20:29.769Z,77.42
2019-03-21T01:21:29.765Z,77.80
2019-03-21T01:22:29.744Z,77.73
2019-03-21T01:23:29.772Z,77.80
2019-03-21T01:24:29.739Z,75.98
2019-03-21T01:25:29.712Z,76.51
2019-03-21T01:26:29.703Z,75.88
2019-03-21T01:27:29.692Z,76.40
2019-03-21T01:28:32.765Z,76.51
2019-03-21T01:29:29.678Z,75.81
2019-03-21T01:30:31.147Z,75.84
2019-03-21T01:32:45.284Z,77.24
2019-03-21T01:33:38.428Z,78.39
2019-03-21T01:34:38.394Z,78.85
2019-03-21T01:35:38.383Z,78.99
2019-03-21T01:36:38.371Z,76.57
2019-03-21T01:37:38.363Z,76.86
2019-03-21T01:38:38.400Z,76.89
2019-03-21T01:39:38.373Z,75.95
2019-03-21T01:40:38.336Z,74.31
2019-03-21T01:41:38.357Z,72.71
2019-03-21T01:42:38.355Z,72.30
2019-03-21T01:43:38.483Z,71.42
2019-03-21T01:44:41.337Z,70.98
2019-03-21T01:45:38.413Z,69.79
2019-03-21T01:46:38.275Z,69.90
2019-03-21T01:47:38.277Z,68.82
2019-03-21T01:48:38.294Z,67.78
2019-03-21T01:49:39.208Z,67.65
2019-03-21T01:50:39.124Z,66.57
2019-03-21T01:51:38.227Z,65.74
2019-03-21T01:52:38.263Z,65.84
2019-03-21T01:53:39.189Z,65.74
2019-03-21T01:54:38.200Z,65.22
2019-03-21T01:55:38.192Z,64.98
2019-03-21T01:56:38.174Z,64.87
2019-03-21T01:57:38.168Z,64.87
2019-03-21T01:58:38.152Z,64.87
2019-03-21T01:59:38.168Z,64.25
2019-03-21T02:00:38.125Z,64.67
2019-03-21T02:01:38.135Z,64.87
2019-03-21T02:02:38.117Z,64.67
2019-03-21T02:03:38.413Z,63.91
2019-03-21T02:04:38.172Z,64.22
2019-03-21T02:05:38.091Z,63.60
2019-03-21T02:06:38.075Z,63.29
2019-03-21T02:07:38.062Z,63.81
2019-03-21T02:08:38.065Z,63.29
2019-03-21T02:09:38.085Z,63.08
2019-03-21T02:10:38.033Z,62.22
2019-03-21T02:11:38.871Z,61.90
2019-03-21T02:12:38.012Z,62.01
2019-03-21T02:13:38.007Z,62.63
2019-03-21T02:14:38.016Z,62.45
2019-03-21T02:15:37.981Z,63.18
2019-03-21T02:16:37.973Z,62.14
2019-03-21T02:17:37.971Z,63.08
2019-03-21T02:18:37.951Z,62.55
2019-03-21T02:19:37.973Z,62.45
2019-03-21T02:20:37.937Z,62.43
2019-03-21T02:21:37.914Z,62.53
2019-03-21T02:22:37.909Z,61.80
2019-03-21T02:23:37.903Z,62.53
2019-03-21T02:24:37.925Z,62.63
2019-03-21T02:25:37.877Z,62.43
2019-03-21T02:26:37.947Z,62.66
2019-03-21T02:27:37.859Z,62.01
2019-03-21T02:28:37.851Z,61.59
2019-03-21T02:29:37.865Z,62.01
2019-03-21T02:30:37.833Z,61.90
2019-03-21T02:31:37.813Z,61.59
2019-03-21T02:32:37.805Z,61.59
2019-03-21T02:33:37.841Z,61.62
2019-03-21T02:34:37.789Z,61.38
2019-03-21T02:35:37.779Z,61.59
2019-03-21T02:36:37.773Z,61.18
2019-03-21T02:37:37.762Z,60.31
2019-03-21T02:38:37.745Z,60.21
2019-03-21T02:39:37.772Z,61.04
2019-03-21T02:40:37.738Z,60.83
2019-03-21T02:41:37.725Z,60.42
2019-03-21T02:42:37.714Z,60.66
2019-03-21T02:43:37.712Z,60.21
2019-03-21T02:44:37.852Z,60.11
2019-03-21T02:45:37.684Z,60.21
2019-03-21T02:46:37.671Z,60.00
2019-03-21T02:47:37.646Z,60.42
2019-03-21T02:48:37.636Z,60.24
2019-03-21T02:49:37.984Z,60.55
2019-03-21T02:50:37.623Z,60.55
2019-03-21T02:51:37.610Z,60.63
2019-03-21T02:52:37.594Z,60.11
2019-03-21T02:53:37.592Z,60.42
2019-03-21T02:54:37.606Z,60.31
2019-03-21T02:55:37.569Z,60.31
2019-03-21T02:56:37.556Z,60.21
2019-03-21T02:57:37.546Z,61.04
2019-03-21T02:58:37.551Z,60.52
2019-03-21T02:59:37.556Z,60.35
2019-03-21T03:00:37.517Z,60.94
2019-03-21T03:01:37.514Z,60.24
2019-03-21T03:02:37.491Z,60.73
2019-03-21T03:03:37.485Z,60.21
2019-03-21T03:04:37.502Z,60.00
2019-03-21T03:05:37.463Z,60.63
2019-03-21T03:06:37.458Z,59.66
2019-03-21T03:07:37.441Z,59.80
2019-03-21T03:08:37.435Z,60.19
2019-03-21T03:09:37.448Z,60.19
2019-03-21T03:10:37.614Z,60.21
2019-03-21T03:11:37.768Z,59.77
2019-03-21T03:12:37.530Z,58.83
2019-03-21T03:13:37.622Z,58.91
2019-03-21T03:14:37.851Z,58.62
2019-03-21T03:15:37.647Z,59.01
2019-03-21T03:16:37.581Z,58.83
2019-03-21T03:17:37.576Z,58.91
2019-03-21T03:18:37.644Z,59.14
2019-03-21T03:19:37.809Z,58.62
2019-03-21T03:20:37.573Z,60.21
2019-03-21T03:21:37.539Z,60.63
2019-03-21T03:22:37.530Z,60.42
2019-03-21T03:23:37.546Z,60.63
2019-03-21T03:24:37.753Z,60.73
2019-03-21T03:25:37.527Z,61.28
2019-03-21T03:26:37.790Z,61.31
2019-03-21T03:27:37.462Z,61.18
2019-03-21T03:28:37.735Z,61.38
2019-03-21T03:29:37.526Z,62.22
2019-03-21T03:30:37.461Z,62.55
2019-03-21T03:31:37.483Z,62.32
2019-03-21T03:32:37.797Z,62.66
2019-03-21T03:33:37.229Z,62.45
2019-03-21T03:34:37.230Z,62.55
2019-03-21T03:35:37.300Z,62.24
2019-03-21T03:36:37.192Z,63.29
2019-03-21T03:37:37.255Z,63.73
2019-03-21T03:38:37.186Z,64.04
2019-03-21T03:39:37.265Z,62.90
2019-03-21T03:40:37.253Z,62.45
2019-03-21T03:41:37.175Z,62.66
2019-03-21T03:42:37.240Z,63.42
2019-03-21T03:43:37.142Z,62.48
2019-03-21T03:44:37.140Z,62.38
2019-03-21T03:45:38.437Z,63.10
2019-03-21T03:46:37.182Z,63.21
2019-03-21T03:47:37.094Z,63.55
2019-03-21T03:48:37.084Z,63.87
2019-03-21T03:49:37.071Z,63.87
2019-03-21T03:50:37.579Z,64.49
2019-03-21T03:51:37.054Z,63.87
2019-03-21T03:52:37.022Z,62.82
2019-03-21T03:53:37.030Z,63.45
2019-03-21T03:54:37.016Z,64.07
2019-03-21T03:55:37.080Z,63.87
2019-03-21T03:56:37.001Z,63.65
2019-03-21T03:57:36.991Z,64.07
2019-03-21T03:58:36.979Z,63.76
2019-03-21T03:59:36.961Z,63.94
2019-03-21T04:00:37.039Z,63.97
2019-03-21T04:01:36.943Z,64.18
2019-03-21T04:02:36.939Z,64.21
2019-03-21T04:03:36.927Z,64.07
2019-03-21T04:04:36.911Z,64.49
2019-03-21T04:05:36.990Z,64.18
2019-03-21T04:06:36.902Z,64.39
2019-03-21T04:07:36.883Z,64.39
2019-03-21T04:08:36.887Z,63.76
2019-03-21T04:09:36.865Z,63.76
2019-03-21T04:10:36.939Z,63.97
2019-03-21T04:11:36.856Z,64.31
2019-03-21T04:12:36.918Z,64.31
2019-03-21T04:13:36.835Z,64.07
2019-03-21T04:14:36.805Z,63.97
2019-03-21T04:15:51.298Z,63.55
2019-03-21T04:16:37.893Z,62.93
2019-03-21T04:17:36.777Z,63.55
2019-03-21T04:18:36.782Z,63.55
2019-03-21T04:19:36.759Z,63.45
2019-03-21T04:20:36.850Z,63.76
2019-03-21T04:21:36.726Z,64.49
2019-03-21T04:22:36.742Z,63.97
2019-03-21T04:23:36.721Z,63.87
2019-03-21T04:24:36.717Z,63.45
2019-03-21T04:25:36.710Z,63.42
2019-03-21T04:26:36.773Z,62.79
2019-03-21T04:27:36.727Z,62.48
2019-03-21T04:28:36.679Z,62.17
2019-03-21T04:29:36.673Z,62.59
2019-03-21T04:30:36.664Z,62.55
2019-03-21T04:31:36.636Z,62.55
2019-03-21T04:32:36.713Z,62.07
2019-03-21T04:33:36.616Z,63.53
2019-03-21T04:34:36.615Z,63.21
2019-03-21T04:35:36.590Z,62.59
2019-03-21T04:36:36.596Z,62.59
2019-03-21T04:37:36.579Z,62.59
2019-03-21T04:38:36.653Z,63.63
2019-03-21T04:39:36.569Z,63.45
2019-03-21T04:40:36.612Z,63.97
2019-03-21T04:41:36.537Z,63.55
2019-03-21T04:42:36.530Z,63.45
2019-03-21T04:43:36.529Z,63.76
2019-03-21T04:44:36.515Z,63.24
2019-03-21T04:45:36.510Z,63.32
2019-03-21T04:46:36.560Z,62.59
2019-03-21T04:47:36.483Z,62.07
2019-03-21T04:48:36.561Z,62.59
2019-03-21T04:49:36.463Z,62.48
2019-03-21T04:50:36.449Z,62.79
2019-03-21T04:51:36.477Z,63.55
2019-03-21T04:52:36.410Z,63.32
2019-03-21T04:53:36.412Z,63.45
2019-03-21T04:54:36.404Z,63.65
2019-03-21T04:55:36.454Z,64.18
2019-03-21T04:56:36.385Z,63.76
2019-03-21T04:57:36.377Z,63.53
2019-03-21T04:58:36.452Z,63.21
2019-03-21T04:59:36.328Z,63.24
2019-03-21T05:00:36.320Z,63.97
2019-03-21T05:01:36.490Z,63.45
2019-03-21T05:02:36.290Z,63.45
2019-03-21T05:03:36.336Z,63.45
2019-03-21T05:04:36.272Z,63.76
2019-03-21T05:05:36.262Z,63.65
2019-03-21T05:06:36.255Z,63.97
2019-03-21T05:07:36.258Z,63.97
2019-03-21T05:08:36.223Z,63.76
2019-03-21T05:09:36.215Z,62.59
2019-03-21T05:10:36.209Z,63.32
2019-03-21T05:11:36.240Z,63.34
2019-03-21T05:12:36.192Z,62.59
2019-03-21T05:13:36.182Z,63.53
2019-03-21T05:14:36.167Z,63.24
2019-03-21T05:15:36.156Z,62.48
2019-03-21T05:16:37.123Z,62.59
2019-03-21T05:17:36.135Z,63.24
2019-03-21T05:18:36.124Z,62.82
2019-03-21T05:19:36.116Z,63.97
2019-03-21T05:20:36.105Z,63.45
2019-03-21T05:21:36.251Z,63.03
2019-03-21T05:22:36.087Z,63.89
2019-03-21T05:23:36.078Z,64.21
2019-03-21T05:24:36.103Z,64.62
2019-03-21T05:25:36.059Z,65.25
2019-03-21T05:26:36.069Z,65.25
2019-03-21T05:27:36.036Z,65.59
2019-03-21T05:28:36.028Z,65.14
2019-03-21T05:29:36.015Z,64.31
2019-03-21T05:30:36.004Z,64.49
2019-03-21T05:31:36.021Z,64.07
2019-03-21T05:32:35.985Z,63.97
2019-03-21T05:33:35.981Z,64.18
2019-03-21T05:34:35.963Z,64.39
2019-03-21T05:35:35.956Z,64.07
2019-03-21T05:36:35.978Z,63.21
2019-03-21T05:37:35.932Z,63.21
2019-03-21T05:38:35.930Z,62.38
2019-03-21T05:39:35.918Z,62.48
2019-03-21T05:40:35.901Z,62.69
2019-03-21T05:41:35.926Z,62.59
2019-03-21T05:42:35.889Z,62.79
2019-03-21T05:43:35.866Z,62.17
2019-03-21T05:44:35.862Z,62.48
2019-03-21T05:45:35.868Z,62.59
2019-03-21T05:46:35.870Z,62.27
2019-03-21T05:47:35.828Z,62.45
2019-03-21T05:48:35.835Z,62.04
2019-03-21T05:49:35.809Z,61.28
2019-03-21T05:50:35.800Z,60.42
2019-03-21T05:51:35.819Z,60.11
2019-03-21T05:52:35.776Z,59.90
2019-03-21T05:53:35.773Z,58.94
2019-03-21T05:54:35.777Z,59.88
2019-03-21T05:55:35.753Z,58.00
2019-03-21T05:56:35.777Z,58.70
2019-03-21T05:57:35.725Z,57.95
2019-03-21T05:58:35.716Z,57.43
2019-03-21T05:59:35.707Z,56.60
2019-03-21T06:00:35.696Z,57.43
2019-03-21T06:01:35.786Z,56.26
2019-03-21T06:02:35.687Z,56.99
2019-03-21T06:03:35.673Z,56.88
2019-03-21T06:04:35.719Z,56.37
2019-03-21T06:05:35.644Z,56.34
2019-03-21T06:06:35.661Z,56.13
2019-03-21T06:07:35.627Z,55.51
2019-03-21T06:08:35.622Z,55.38
2019-03-21T06:09:35.618Z,54.65
2019-03-21T06:10:35.599Z,54.24
2019-03-21T06:11:35.626Z,54.73
2019-03-21T06:12:35.576Z,54.55
2019-03-21T06:13:35.576Z,54.63
2019-03-21T06:14:35.557Z,54.32
2019-03-21T06:15:35.544Z,53.36
2019-03-21T06:16:37.792Z,53.77
2019-03-21T06:17:35.523Z,53.25
2019-03-21T06:18:35.571Z,53.46
2019-03-21T06:19:35.506Z,52.82
2019-03-21T06:20:35.597Z,53.56
2019-03-21T06:21:35.523Z,52.72
2019-03-21T06:22:35.493Z,53.10
2019-03-21T06:23:35.459Z,52.28
2019-03-21T06:24:35.462Z,51.65
2019-03-21T06:25:35.446Z,52.28
2019-03-21T06:26:35.463Z,52.59
2019-03-21T06:27:35.453Z,51.53
2019-03-21T06:28:35.411Z,51.84
2019-03-21T06:29:35.402Z,51.63
2019-03-21T06:30:35.390Z,51.71
2019-03-21T06:31:35.433Z,51.32
2019-03-21T06:32:35.396Z,50.89
2019-03-21T06:33:35.363Z,51.81
2019-03-21T06:34:35.355Z,50.99
2019-03-21T06:35:35.337Z,49.95
2019-03-21T06:36:35.335Z,50.47
2019-03-21T06:37:35.355Z,50.57
2019-03-21T06:38:35.311Z,51.42
2019-03-21T06:39:35.309Z,50.57
2019-03-21T06:40:35.288Z,50.37
2019-03-21T06:41:35.280Z,50.86
2019-03-21T06:42:35.299Z,50.24
2019-03-21T06:43:35.270Z,49.80
2019-03-21T06:44:35.246Z,49.29
2019-03-21T06:45:35.235Z,50.32
2019-03-21T06:46:35.223Z,49.39
2019-03-21T06:47:35.268Z,49.08
2019-03-21T06:48:35.207Z,48.56
2019-03-21T06:49:35.209Z,48.75
2019-03-21T06:50:35.190Z,48.33
2019-03-21T06:51:35.241Z,48.54
2019-03-21T06:52:35.212Z,49.16
2019-03-21T06:53:35.159Z,47.81
2019-03-21T06:54:35.157Z,49.26
2019-03-21T06:55:35.173Z,48.10
2019-03-21T06:56:35.133Z,47.90
2019-03-21T06:57:35.123Z,47.46
2019-03-21T06:58:35.131Z,47.36
2019-03-21T06:59:35.095Z,46.72
2019-03-21T07:00:35.129Z,46.59
2019-03-21T07:01:35.163Z,45.98
2019-03-21T07:02:35.084Z,45.75
2019-03-21T07:03:35.061Z,45.77
2019-03-21T07:04:35.041Z,45.77
2019-03-21T07:05:35.037Z,45.54
2019-03-21T07:06:35.023Z,44.59
2019-03-21T07:07:35.050Z,45.46
2019-03-21T07:08:34.994Z,45.54
2019-03-21T07:09:34.997Z,44.29
2019-03-21T07:10:35.005Z,44.26
2019-03-21T07:11:34.988Z,45.42
2019-03-21T07:12:34.960Z,44.06
2019-03-21T07:13:35.023Z,44.17
2019-03-21T07:14:34.941Z,43.96
2019-03-21T07:15:34.956Z,44.37
2019-03-21T07:16:34.907Z,44.37
2019-03-21T07:17:34.955Z,44.04
2019-03-21T07:18:34.893Z,43.09
2019-03-21T07:19:34.890Z,43.38
2019-03-21T07:20:34.901Z,42.56
2019-03-21T07:21:34.865Z,41.82
2019-03-21T07:22:34.861Z,42.25
2019-03-21T07:23:34.861Z,42.05
2019-03-21T07:24:34.839Z,42.35
2019-03-21T07:25:34.977Z,42.64
2019-03-21T07:26:34.866Z,42.44
2019-03-21T07:27:34.803Z,41.31
2019-03-21T07:28:34.801Z,40.98
2019-03-21T07:29:34.793Z,41.41
2019-03-21T07:30:34.802Z,42.02
2019-03-21T07:31:34.770Z,41.33
2019-03-21T07:32:34.767Z,41.84
2019-03-21T07:33:34.817Z,41.80
2019-03-21T07:34:34.735Z,40.88
2019-03-21T07:35:34.753Z,40.67
2019-03-21T07:36:34.710Z,40.96
2019-03-21T07:37:34.710Z,40.33
2019-03-21T07:38:34.688Z,40.22
2019-03-21T07:39:34.677Z,40.63
2019-03-21T07:40:34.672Z,40.61
2019-03-21T07:41:34.688Z,39.59
2019-03-21T07:42:34.646Z,40.53
2019-03-21T07:43:34.651Z,40.00
2019-03-21T07:44:34.635Z,38.87
2019-03-21T07:45:34.639Z,39.18
2019-03-21T07:46:34.598Z,39.67
2019-03-21T07:47:34.613Z,39.02
2019-03-21T07:48:34.583Z,38.68
2019-03-21T07:49:34.602Z,37.55
2019-03-21T07:50:34.595Z,37.43
2019-03-21T07:51:34.550Z,37.24
2019-03-21T07:52:34.594Z,37.65
2019-03-21T07:53:34.530Z,37.47
2019-03-21T07:54:34.559Z,37.67
2019-03-21T07:55:34.537Z,38.18
2019-03-21T07:56:34.510Z,37.98
2019-03-21T07:57:34.484Z,37.79
2019-03-21T07:58:34.491Z,37.77
2019-03-21T07:59:34.482Z,37.63
2019-03-21T08:00:34.496Z,37.72
2019-03-21T08:01:34.480Z,37.38
2019-03-21T08:02:34.444Z,37.60
2019-03-21T08:03:34.452Z,37.11
2019-03-21T08:04:34.419Z,36.92
2019-03-21T08:05:40.358Z,36.60
2019-03-21T08:06:35.427Z,36.49
2019-03-21T08:07:34.408Z,37.31
2019-03-21T08:08:34.370Z,36.80
2019-03-21T08:09:34.482Z,36.15
2019-03-21T08:10:34.361Z,35.75
2019-03-21T08:11:34.385Z,36.25
2019-03-21T08:12:34.336Z,36.36
2019-03-21T08:13:35.126Z,36.56
2019-03-21T08:14:34.338Z,36.80
2019-03-21T08:15:34.319Z,37.01
2019-03-21T08:16:34.314Z,37.09
2019-03-21T08:17:34.279Z,37.11
2019-03-21T08:18:34.300Z,37.35
2019-03-21T08:19:36.168Z,37.86
2019-03-21T08:20:34.253Z,36.92
2019-03-21T08:21:34.269Z,36.79
2019-03-21T08:22:34.221Z,36.66
2019-03-21T08:23:34.217Z,36.36
2019-03-21T08:24:34.207Z,36.12
2019-03-21T08:25:34.215Z,35.39
2019-03-21T08:26:34.176Z,35.83
2019-03-21T08:27:34.202Z,35.93
2019-03-21T08:28:34.165Z,35.32
2019-03-21T08:29:34.172Z,36.24
2019-03-21T08:30:34.145Z,35.20
2019-03-21T08:31:34.180Z,34.98
2019-03-21T08:32:34.122Z,35.06
2019-03-21T08:33:34.119Z,34.34
2019-03-21T08:34:34.128Z,34.23
2019-03-21T08:35:34.105Z,34.53
2019-03-21T08:36:34.077Z,34.35
2019-03-21T08:37:34.100Z,34.64
2019-03-21T08:38:34.054Z,34.34
2019-03-21T08:39:34.044Z,34.01
2019-03-21T08:40:34.037Z,33.69
2019-03-21T08:41:34.059Z,32.69
2019-03-21T08:42:34.022Z,34.54
2019-03-21T08:43:34.006Z,33.10
2019-03-21T08:44:34.012Z,33.07
2019-03-21T08:45:33.979Z,32.14
2019-03-21T08:46:34.013Z,32.47
2019-03-21T08:47:33.960Z,33.20
2019-03-21T08:48:33.950Z,33.20
2019-03-21T08:49:33.945Z,32.59
2019-03-21T08:50:33.929Z,32.76
2019-03-21T08:51:33.953Z,32.83
2019-03-21T08:52:33.921Z,31.29
2019-03-21T08:53:33.899Z,32.01
2019-03-21T08:54:35.022Z,30.98
2019-03-21T08:55:33.878Z,31.60
2019-03-21T08:56:33.895Z,32.01
2019-03-21T08:57:33.861Z,31.43
2019-03-21T08:58:33.844Z,31.83
2019-03-21T08:59:33.872Z,31.82
2019-03-21T09:00:34.643Z,31.79
2019-03-21T09:01:33.817Z,31.40
2019-03-21T09:02:33.802Z,31.80
2019-03-21T09:03:33.842Z,31.18
2019-03-21T09:04:33.793Z,30.67
2019-03-21T09:05:33.775Z,30.96
2019-03-21T09:06:33.816Z,30.96
2019-03-21T09:07:33.750Z,31.13
2019-03-21T09:08:33.748Z,29.00
2019-03-21T09:09:33.740Z,30.21
2019-03-21T09:10:34.423Z,30.35
2019-03-21T09:11:33.735Z,30.45
2019-03-21T09:12:33.696Z,30.35
2019-03-21T09:13:33.683Z,31.08
2019-03-21T09:14:33.680Z,31.06
2019-03-21T09:15:33.667Z,29.83
2019-03-21T09:16:33.698Z,30.05
2019-03-21T09:17:33.650Z,30.93
2019-03-21T09:18:33.635Z,29.83
2019-03-21T09:19:33.635Z,30.12
2019-03-21T09:20:33.620Z,29.19
2019-03-21T09:21:33.602Z,30.24
2019-03-21T09:22:33.641Z,30.22
2019-03-21T09:23:33.588Z,29.92
2019-03-21T09:24:33.574Z,30.05
2019-03-21T09:25:33.583Z,30.15
2019-03-21T09:26:33.556Z,30.94
2019-03-21T09:27:33.569Z,30.22
2019-03-21T09:28:33.526Z,30.00
2019-03-21T09:29:33.525Z,29.38
2019-03-21T09:30:33.534Z,29.50
2019-03-21T09:31:33.500Z,29.37
2019-03-21T09:32:33.527Z,28.98
2019-03-21T09:33:33.498Z,29.89
2019-03-21T09:34:33.461Z,29.77
2019-03-21T09:35:33.449Z,28.63
2019-03-21T09:36:33.444Z,27.90
2019-03-21T09:37:33.463Z,28.04
2019-03-21T09:38:33.418Z,29.56
2019-03-21T09:39:33.461Z,28.96
2019-03-21T09:40:33.402Z,29.58
2019-03-21T09:41:33.395Z,29.70
2019-03-21T09:42:33.404Z,29.08
2019-03-21T09:43:33.364Z,29.17
2019-03-21T09:44:33.360Z,29.44
2019-03-21T09:45:33.343Z,28.43
2019-03-21T09:46:33.338Z,28.95
2019-03-21T09:47:33.355Z,28.45
2019-03-21T09:48:33.325Z,28.85
2019-03-21T09:49:33.317Z,28.55
2019-03-21T09:50:33.298Z,28.42
2019-03-21T09:51:33.299Z,28.49
2019-03-21T09:52:33.311Z,27.48
2019-03-21T09:53:33.271Z,26.77
2019-03-21T09:54:33.267Z,26.48
2019-03-21T09:55:33.251Z,27.19
2019-03-21T09:56:33.235Z,26.86
2019-03-21T09:57:33.934Z,26.04
2019-03-21T09:58:33.252Z,26.17
2019-03-21T09:59:33.204Z,27.08
2019-03-21T10:00:33.239Z,26.46
2019-03-21T10:01:33.183Z,26.87
2019-03-21T10:02:33.195Z,26.56
2019-03-21T10:03:33.171Z,26.86
2019-03-21T10:04:33.155Z,25.45
2019-03-21T10:05:33.155Z,25.84
2019-03-21T10:06:33.157Z,26.67
2019-03-21T10:07:33.155Z,27.48
2019-03-21T10:08:33.111Z,27.36
2019-03-21T10:09:33.120Z,25.62
2019-03-21T10:10:33.088Z,25.81
2019-03-21T10:11:33.073Z,24.18
2019-03-21T10:12:33.091Z,24.39
2019-03-21T10:13:33.051Z,24.60
2019-03-21T10:14:33.045Z,24.52
2019-03-21T10:15:33.032Z,26.02
2019-03-21T10:16:33.033Z,25.23
2019-03-21T10:17:33.045Z,25.84
2019-03-21T10:18:33.003Z,24.80
2019-03-21T10:19:32.990Z,24.82
2019-03-21T10:20:32.980Z,25.09
2019-03-21T10:21:42.791Z,24.57
2019-03-21T10:22:33.987Z,24.26
2019-03-21T10:23:32.948Z,23.05
2019-03-21T10:24:32.947Z,24.27
2019-03-21T10:25:32.950Z,24.56
2019-03-21T10:26:33.685Z,23.44
2019-03-21T10:27:32.946Z,22.02
2019-03-21T10:28:32.895Z,22.21
2019-03-21T10:29:32.885Z,22.40
2019-03-21T10:30:32.876Z,22.20
2019-03-21T10:31:32.861Z,22.71
2019-03-21T10:32:32.899Z,22.53
2019-03-21T10:33:32.841Z,22.64
2019-03-21T10:34:33.073Z,23.26
2019-03-21T10:35:32.904Z,22.44
2019-03-21T10:36:32.820Z,23.17
2019-03-21T10:37:32.829Z,24.05
2019-03-21T10:38:32.790Z,23.14
2019-03-21T10:39:32.783Z,23.13
2019-03-21T10:40:32.776Z,23.43
2019-03-21T10:41:32.797Z,23.34
2019-03-21T10:42:32.757Z,23.94
2019-03-21T10:43:32.792Z,23.34
2019-03-21T10:44:32.726Z,23.44
2019-03-21T10:45:32.717Z,23.63
2019-03-21T10:46:32.706Z,23.34
2019-03-21T10:47:32.705Z,24.75
2019-03-21T10:48:32.713Z,23.42
2019-03-21T10:49:32.682Z,23.32
2019-03-21T10:50:32.668Z,23.02
2019-03-21T10:51:32.659Z,22.52
2019-03-21T10:52:32.682Z,22.91
2019-03-21T10:53:32.675Z,22.28
2019-03-21T10:54:32.624Z,22.26
2019-03-21T10:55:32.624Z,21.94
2019-03-21T10:56:32.611Z,21.62
2019-03-21T10:57:32.603Z,20.40
2019-03-21T10:58:32.587Z,21.12
2019-03-21T10:59:32.614Z,21.65
2019-03-21T11:00:32.583Z,22.26
2019-03-21T11:01:32.585Z,21.56
2019-03-21T11:02:32.542Z,21.23
2019-03-21T11:03:32.557Z,21.23
2019-03-21T11:04:32.525Z,20.92
2019-03-21T11:05:32.521Z,19.79
2019-03-21T11:06:32.501Z,20.72
2019-03-21T11:07:32.502Z,21.98
2019-03-21T11:08:32.621Z,22.59
2019-03-21T11:09:32.481Z,23.49
2019-03-21T11:10:32.459Z,22.08
2019-03-21T11:11:32.457Z,22.68
2019-03-21T11:12:32.443Z,22.58
2019-03-21T11:13:32.472Z,22.37
2019-03-21T11:14:32.426Z,22.46
2019-03-21T11:15:32.412Z,22.48
2019-03-21T11:16:32.408Z,22.25
2019-03-21T11:17:32.397Z,22.44
2019-03-21T11:18:36.227Z,22.22
2019-03-21T11:19:32.359Z,21.50
2019-03-21T11:20:32.386Z,21.20
2019-03-21T11:21:32.342Z,21.81
2019-03-21T11:22:32.339Z,21.01
2019-03-21T11:23:32.353Z,21.94
2019-03-21T11:24:32.310Z,22.25
2019-03-21T11:25:32.302Z,22.44
2019-03-21T11:26:32.309Z,21.72
2019-03-21T11:27:32.280Z,21.80
2019-03-21T11:28:32.277Z,21.62
2019-03-21T11:29:32.291Z,21.51
2019-03-21T11:30:32.251Z,22.61
2019-03-21T11:31:32.249Z,21.81
2019-03-21T11:32:32.246Z,21.89
2019-03-21T11:33:32.219Z,20.68
2019-03-21T11:34:32.256Z,20.16
2019-03-21T11:35:32.213Z,20.94
2019-03-21T11:36:38.266Z,20.35
2019-03-21T11:37:33.197Z,20.16
2019-03-21T11:38:32.200Z,20.57
2019-03-21T11:39:32.160Z,20.37
2019-03-21T11:40:32.154Z,20.25
2019-03-21T11:41:32.146Z,19.32
2019-03-21T11:42:32.130Z,19.02
2019-03-21T11:43:32.134Z,19.73
2019-03-21T11:44:32.145Z,19.47
2019-03-21T11:45:32.124Z,19.87
2019-03-21T11:46:32.105Z,20.78
2019-03-21T11:47:41.412Z,21.08
2019-03-21T11:48:33.075Z,20.48
2019-03-21T11:49:32.068Z,20.76
2019-03-21T11:50:32.054Z,20.09
2019-03-21T11:51:32.044Z,20.07
2019-03-21T11:52:32.028Z,20.48
2019-03-21T11:53:32.096Z,20.17
2019-03-21T11:54:32.013Z,19.66
2019-03-21T11:55:32.009Z,19.94
2019-03-21T11:56:31.997Z,19.83
2019-03-21T11:57:31.977Z,19.12
2019-03-21T11:58:31.973Z,19.71
2019-03-21T11:59:46.142Z,20.14
2019-03-21T12:00:42.827Z,19.55
2019-03-21T12:01:32.933Z,19.43
2019-03-21T12:02:31.965Z,18.64
2019-03-21T12:03:31.933Z,19.48
2019-03-21T12:04:31.905Z,20.50
2019-03-21T12:05:31.897Z,19.76
2019-03-21T12:06:31.880Z,19.02
2019-03-21T12:07:31.878Z,19.75
2019-03-21T12:08:31.894Z,19.34
2019-03-21T12:09:31.859Z,19.73
2019-03-21T12:10:31.852Z,18.94
2019-03-21T12:11:31.871Z,19.34
2019-03-21T12:12:31.841Z,20.54
2019-03-21T12:13:31.823Z,19.31
2019-03-21T12:14:31.807Z,19.20
2019-03-21T12:15:31.787Z,19.18
2019-03-21T12:16:31.781Z,18.60
2019-03-21T12:17:31.797Z,17.50
2019-03-21T12:18:31.774Z,18.80
2019-03-21T12:19:31.758Z,19.31
2019-03-21T12:20:31.753Z,18.91
2019-03-21T12:21:31.755Z,18.31
2019-03-21T12:22:31.719Z,18.19
2019-03-21T12:23:31.748Z,17.58
2019-03-21T12:24:31.743Z,16.98
2019-03-21T12:25:31.696Z,18.67
2019-03-21T12:26:31.692Z,18.16
2019-03-21T12:27:31.677Z,18.44
2019-03-21T12:28:31.662Z,17.27
2019-03-21T12:29:31.671Z,16.98
2019-03-21T12:30:31.650Z,17.90
2019-03-21T12:31:31.631Z,17.99
2019-03-21T12:32:31.620Z,17.46
2019-03-21T12:33:31.614Z,17.16
2019-03-21T12:34:31.635Z,16.57
2019-03-21T12:35:31.596Z,17.19
2019-03-21T12:36:31.583Z,16.91
2019-03-21T12:37:31.590Z,17.36
2019-03-21T12:38:31.557Z,17.68
2019-03-21T12:39:31.588Z,18.59
2019-03-21T12:40:31.556Z,18.70
2019-03-21T12:41:31.529Z,19.08
2019-03-21T12:42:32.194Z,18.79
2019-03-21T12:43:31.514Z,19.42
2019-03-21T12:44:31.494Z,19.31
2019-03-21T12:45:31.524Z,18.10
2019-03-21T12:46:31.481Z,18.71
2019-03-21T12:47:31.997Z,19.53
2019-03-21T12:48:31.457Z,19.43
2019-03-21T12:49:31.450Z,19.33
2019-03-21T12:50:31.436Z,19.92
2019-03-21T12:51:31.454Z,19.51
2019-03-21T12:52:41.030Z,19.17
2019-03-21T12:53:32.406Z,19.25
2019-03-21T12:54:31.410Z,17.46